6hr Temperature Data

Temp.
(°C)
Wind Chill
(°C)
Dew Point
(°C)
Solar Hours
(hh:mm)
Solar Radiation
(w/m2)
Min
11.0 9.4 8.4 00:00 0.0
Max
14.3 14.9 9.4 00:00 16.0
Range
3.3 5.5 1 n/a 16
Mode
11.2 10.6 9.1 00:00 0.0
Median
11.4 10.5 9 00:00 0.0
Mean
12 11.2 9 n/a 1.9
Std. Dev
1.3 1.7 0.5 n/a 3.7
Temp.
(°C)
Wind Chill
(°C)
Dew Point
(°C)
Solar Hours
(hh:mm)
Solar Radiation
(w/m2)
23/01 09:45 14.0 13.8 8.4 00:00 14.0
23/01 09:44 14.0 13.8 8.4 00:00 14.0
23/01 09:43 14.0 13.7 8.4 00:00 14.0
23/01 09:42 14.0 13.7 8.4 00:00 12.0
23/01 09:41 14.0 13.8 8.6 00:00 12.0
23/01 09:40 14.0 13.8 8.6 00:00 12.0
23/01 09:39 14.0 13.8 8.6 00:00 12.0
23/01 09:38 14.0 13.8 8.6 00:00 16.0
23/01 09:37 14.0 13.8 8.6 00:00 14.0
23/01 09:36 14.0 13.9 8.6 00:00 14.0
23/01 09:35 14.0 13.8 8.6 00:00 12.0
23/01 09:34 14.0 13.7 8.6 00:00 12.0
23/01 09:33 13.9 13.6 8.7 00:00 12.0
23/01 09:32 13.9 13.7 8.7 00:00 12.0
23/01 09:31 13.9 13.7 8.7 00:00 10.0
23/01 09:30 13.9 13.7 8.7 00:00 10.0
23/01 09:29 13.9 13.7 8.7 00:00 10.0
23/01 09:28 14.0 13.8 8.8 00:00 10.0
23/01 09:27 14.0 13.8 8.8 00:00 10.0
23/01 09:26 14.0 13.8 8.8 00:00 10.0
23/01 09:25 13.9 13.7 8.9 00:00 10.0
23/01 09:24 13.9 13.8 8.9 00:00 8.0
23/01 09:23 13.8 13.8 9 00:00 8.0
23/01 09:22 13.8 13.7 9 00:00 8.0
23/01 09:21 13.8 13.7 9 00:00 8.0
23/01 09:20 13.8 13.7 9.2 00:00 8.0
23/01 09:19 13.8 13.7 9.2 00:00 6.0
23/01 09:18 13.8 13.7 9.2 00:00 6.0
23/01 09:17 13.9 13.8 9.1 00:00 6.0
23/01 09:16 13.9 13.7 9.1 00:00 6.0
23/01 09:15 13.9 13.7 9.1 00:00 6.0
23/01 09:14 13.9 13.6 9.1 00:00 6.0
23/01 09:13 14.0 13.8 9.2 00:00 6.0
23/01 09:12 14.0 13.8 9.2 00:00 6.0
23/01 09:11 14.0 13.9 9.2 00:00 6.0
23/01 09:10 14.0 14 9.2 00:00 6.0
23/01 09:09 14.0 14.1 9.2 00:00 6.0
23/01 09:08 14.0 14 9.2 00:00 6.0
23/01 09:07 14.1 14.1 9.3 00:00 6.0
23/01 09:06 14.1 14 9.3 00:00 6.0
23/01 09:05 14.1 14 9.3 00:00 8.0
23/01 09:04 14.1 14 9.3 00:00 8.0
23/01 09:03 14.1 14.1 9.3 00:00 8.0
23/01 09:02 14.1 14.4 9.3 00:00 8.0
23/01 09:01 14.1 14.4 9.3 00:00 8.0
23/01 09:00 14.1 14.3 9.1 00:00 8.0
23/01 08:59 14.1 14.4 9.1 00:00 8.0
23/01 08:58 14.1 14.4 9.1 00:00 10.0
23/01 08:57 14.1 14.5 9.1 00:00 10.0
23/01 08:56 14.1 14.6 9.1 00:00 10.0
23/01 08:55 14.1 14.8 9.1 00:00 10.0
23/01 08:54 14.1 14.9 9.1 00:00 10.0
23/01 08:53 14.1 14.9 9.1 00:00 10.0
23/01 08:52 14.0 14.7 9 00:00 10.0
23/01 08:51 14.1 14.7 9.1 00:00 10.0
23/01 08:50 14.1 14.6 9.1 00:00 10.0
23/01 08:49 14.1 14.6 9.1 00:00 10.0
23/01 08:48 14.1 14.6 9.1 00:00 8.0
23/01 08:47 14.1 14.5 9.1 00:00 8.0
23/01 08:46 14.1 14.4 9.1 00:00 8.0
23/01 08:45 14.2 14.5 9 00:00 8.0
23/01 08:44 14.2 14.5 9 00:00 8.0
23/01 08:43 14.2 14.4 9 00:00 6.0
23/01 08:42 14.2 14.3 9 00:00 6.0
23/01 08:41 14.3 14.3 9.1 00:00 6.0
23/01 08:40 14.3 14.2 9.1 00:00 6.0
23/01 08:39 14.3 14.2 9.1 00:00 6.0
23/01 08:38 14.3 14.1 9.1 00:00 6.0
23/01 08:37 14.3 14.1 9.1 00:00 4.0
23/01 08:36 14.3 14.1 9.1 00:00 4.0
23/01 08:35 14.2 14 9 00:00 4.0
23/01 08:34 14.2 14 9 00:00 4.0
23/01 08:33 14.1 13.8 9.1 00:00 4.0
23/01 08:32 14.0 13.7 9 00:00 4.0
23/01 08:31 13.8 13.4 9 00:00 4.0
23/01 08:30 13.5 13.1 9.1 00:00 4.0
23/01 08:29 13.3 12.9 9.1 00:00 4.0
23/01 08:28 13.0 12.6 9.2 00:00 4.0
23/01 08:27 12.7 12.3 9.1 00:00 4.0
23/01 08:26 12.6 12.4 9 00:00 4.0
23/01 08:25 12.4 12.1 9 00:00 4.0
23/01 08:24 12.3 12 8.7 00:00 4.0
23/01 08:23 12.4 12.1 8.8 00:00 4.0
23/01 08:22 12.4 12.1 8.6 00:00 4.0
23/01 08:21 12.6 12.4 8.6 00:00 0.0
23/01 08:20 12.8 12.6 8.8 00:00 0.0
23/01 08:19 12.8 12.5 8.8 00:00 0.0
23/01 08:18 12.8 12.5 9.2 00:00 0.0
23/01 08:17 12.6 12.3 9 00:00 0.0
23/01 08:16 12.4 12 9 00:00 0.0
23/01 08:15 12.4 11.9 8.8 00:00 0.0
23/01 08:14 12.4 11.8 8.8 00:00 0.0
23/01 08:13 12.5 11.8 9.1 00:00 0.0
23/01 08:12 12.3 11.5 9.3 00:00 0.0
23/01 08:11 12.1 11.3 9.3 00:00 0.0
23/01 08:10 11.9 11.1 9.1 00:00 0.0
23/01 08:09 11.8 10.9 9 00:00 0.0
23/01 08:08 11.7 10.8 8.7 00:00 0.0
23/01 08:07 11.8 11 8.8 00:00 0.0
23/01 08:06 11.9 11.2 8.9 00:00 0.0
23/01 08:05 11.9 11.2 9.1 00:00 0.0
23/01 08:04 11.8 11 9 00:00 0.0
23/01 08:03 11.8 10.9 9 00:00 0.0
23/01 08:02 11.8 10.9 9 00:00 0.0
23/01 08:01 11.8 10.7 9 00:00 0.0
23/01 08:00 11.8 10.7 9 00:00 0.0
23/01 07:59 11.8 10.6 9 00:00 0.0
23/01 07:58 11.7 10.4 8.9 00:00 0.0
23/01 07:57 11.7 10.3 8.9 00:00 0.0
23/01 07:56 11.7 10.2 8.9 00:00 0.0
23/01 07:55 11.7 10.1 8.9 00:00 0.0
23/01 07:54 11.7 10.1 8.9 00:00 0.0
23/01 07:53 11.7 10 9.1 00:00 0.0
23/01 07:52 11.6 9.9 8.8 00:00 0.0
23/01 07:51 11.7 10 8.9 00:00 0.0
23/01 07:50 11.8 10.1 9 00:00 0.0
23/01 07:49 11.9 10.2 9.1 00:00 0.0
23/01 07:48 11.9 10.3 9.3 00:00 0.0
23/01 07:47 11.7 10.1 9.2 00:00 0.0
23/01 07:46 11.5 9.9 9 00:00 0.0
23/01 07:45 11.4 9.8 8.9 00:00 0.0
23/01 07:44 11.4 9.8 8.9 00:00 0.0
23/01 07:43 11.3 9.8 8.7 00:00 0.0
23/01 07:42 11.4 9.9 8.8 00:00 0.0
23/01 07:41 11.4 10 8.8 00:00 0.0
23/01 07:40 11.6 10.2 9 00:00 0.0
23/01 07:39 11.6 10.3 9.1 00:00 0.0
23/01 07:38 11.5 10.1 9 00:00 0.0
23/01 07:37 11.4 10 8.9 00:00 0.0
23/01 07:36 11.4 10 8.9 00:00 0.0
23/01 07:35 11.5 10.1 9 00:00 0.0
23/01 07:34 11.5 10 9.2 00:00 0.0
23/01 07:33 11.3 9.7 9 00:00 0.0
23/01 07:32 11.1 9.5 8.8 00:00 0.0
23/01 07:31 11.1 9.4 8.6 00:00 0.0
23/01 07:30 11.1 9.4 8.5 00:00 0.0
23/01 07:29 11.2 9.5 8.6 00:00 0.0
23/01 07:28 11.3 9.6 8.7 00:00 0.0
23/01 07:27 11.3 9.6 8.7 00:00 0.0
23/01 07:26 11.4 9.8 8.8 00:00 0.0
23/01 07:25 11.5 9.9 8.7 00:00 0.0
23/01 07:24 11.6 10 8.8 00:00 0.0
23/01 07:23 11.8 10.3 9 00:00 0.0
23/01 07:22 11.9 10.4 9.1 00:00 0.0
23/01 07:21 11.9 10.4 9.3 00:00 0.0
23/01 07:20 11.8 10.4 9.3 00:00 0.0
23/01 07:19 11.7 10.3 9.2 00:00 0.0
23/01 07:18 11.6 10.2 9.1 00:00 0.0
23/01 07:17 11.5 10.1 9 00:00 0.0
23/01 07:16 11.3 9.9 8.8 00:00 0.0
23/01 07:15 11.3 9.9 8.8 00:00 0.0
23/01 07:14 11.2 9.9 8.6 00:00 0.0
23/01 07:13 11.3 9.9 8.7 00:00 0.0
23/01 07:12 11.4 10 8.8 00:00 0.0
23/01 07:11 11.5 10.1 9 00:00 0.0
23/01 07:10 11.5 10.2 9.2 00:00 0.0
23/01 07:09 11.4 10.1 9.1 00:00 0.0
23/01 07:08 11.3 9.9 9 00:00 0.0
23/01 07:07 11.3 9.9 9 00:00 0.0
23/01 07:06 11.2 9.8 8.9 00:00 0.0
23/01 07:05 11.1 9.7 8.8 00:00 0.0
23/01 07:04 11.0 9.6 8.7 00:00 0.0
23/01 07:03 11.1 9.7 8.6 00:00 0.0
23/01 07:02 11.1 9.8 8.6 00:00 0.0
23/01 07:01 11.2 9.9 8.7 00:00 0.0
23/01 07:00 11.2 10 8.9 00:00 0.0
23/01 06:59 11.2 10 8.7 00:00 0.0
23/01 06:58 11.3 10.1 8.8 00:00 0.0
23/01 06:57 11.4 10.3 8.9 00:00 0.0
23/01 06:56 11.5 10.4 9 00:00 0.0
23/01 06:55 11.5 10.4 9.2 00:00 0.0
23/01 06:54 11.5 10.4 9.2 00:00 0.0
23/01 06:53 11.4 10.2 9.1 00:00 0.0
23/01 06:52 11.4 10.2 9.1 00:00 0.0
23/01 06:51 11.3 10.1 9 00:00 0.0
23/01 06:50 11.2 9.9 8.9 00:00 0.0
23/01 06:49 11.2 9.9 8.9 00:00 0.0
23/01 06:48 11.2 9.9 8.9 00:00 0.0
23/01 06:47 11.2 9.8 8.9 00:00 0.0
23/01 06:46 11.2 9.9 8.7 00:00 0.0
23/01 06:45 11.2 9.9 8.7 00:00 0.0
23/01 06:44 11.2 9.9 8.7 00:00 0.0
23/01 06:43 11.3 10 8.8 00:00 0.0
23/01 06:42 11.3 10 9 00:00 0.0
23/01 06:41 11.3 10.1 9 00:00 0.0
23/01 06:40 11.3 10.1 9 00:00 0.0
23/01 06:39 11.3 10.1 9 00:00 0.0
23/01 06:38 11.3 10.2 9 00:00 0.0
23/01 06:37 11.3 10.1 9 00:00 0.0
23/01 06:36 11.3 10.2 8.8 00:00 4.0
23/01 06:35 11.3 10.1 8.8 00:00 0.0
23/01 06:34 11.4 10.2 8.9 00:00 0.0
23/01 06:33 11.4 10.2 8.9 00:00 0.0
23/01 06:32 11.4 10.3 8.9 00:00 0.0
23/01 06:31 11.5 10.3 9 00:00 0.0
23/01 06:30 11.7 10.5 9.4 00:00 0.0
23/01 06:29 11.6 10.4 9.3 00:00 0.0
23/01 06:28 11.5 10.3 9.2 00:00 0.0
23/01 06:27 11.5 10.3 9.2 00:00 0.0
23/01 06:26 11.6 10.4 9.3 00:00 0.0
23/01 06:25 11.5 10.2 9.2 00:00 0.0
23/01 06:24 11.5 10.2 9.2 00:00 0.0
23/01 06:23 11.4 10 9.1 00:00 0.0
23/01 06:22 11.5 10.1 9.2 00:00 0.0
23/01 06:21 11.4 10 9.1 00:00 0.0
23/01 06:20 11.4 10 9.1 00:00 0.0
23/01 06:19 11.4 10 9.1 00:00 0.0
23/01 06:18 11.3 9.9 9 00:00 0.0
23/01 06:17 11.3 9.9 9 00:00 4.0
23/01 06:16 11.4 9.9 9.1 00:00 0.0
23/01 06:15 11.4 9.9 9.1 00:00 0.0
23/01 06:14 11.4 9.9 9.1 00:00 0.0
23/01 06:13 11.4 9.9 9.1 00:00 0.0
23/01 06:12 11.4 10 9.1 00:00 0.0
23/01 06:11 11.4 10 9.1 00:00 0.0
23/01 06:10 11.5 10.1 9.2 00:00 0.0
23/01 06:09 11.5 10.1 9.2 00:00 0.0
23/01 06:08 11.5 10.1 9.2 00:00 0.0
23/01 06:07 11.4 10 9.3 00:00 0.0
23/01 06:06 11.4 10 9.1 00:00 0.0
23/01 06:05 11.4 10.1 9.1 00:00 0.0
23/01 06:04 11.5 10.2 9.2 00:00 0.0
23/01 06:03 11.4 10.1 9.3 00:00 0.0
23/01 06:02 11.4 10.1 9.1 00:00 0.0
23/01 06:01 11.4 10.1 9.1 00:00 0.0
23/01 06:00 11.5 10.3 9.4 00:00 0.0
23/01 05:59 11.5 10.3 9.4 00:00 0.0
23/01 05:58 11.4 10.2 9.3 00:00 0.0
23/01 05:57 11.4 10.2 9.3 00:00 0.0
23/01 05:56 11.4 10.3 9.3 00:00 0.0
23/01 05:55 11.4 10.3 9.3 00:00 0.0
23/01 05:54 11.4 10.3 9.3 00:00 0.0
23/01 05:53 11.4 10.3 9.3 00:00 0.0
23/01 05:52 11.3 10.2 9.2 00:00 0.0
23/01 05:51 11.3 10.2 9.2 00:00 0.0
23/01 05:50 11.3 10.2 9.2 00:00 0.0
23/01 05:49 11.3 10.2 9.2 00:00 0.0
23/01 05:48 11.3 10.3 9.2 00:00 0.0
23/01 05:47 11.3 10.3 9.2 00:00 0.0
23/01 05:46 11.2 10.2 9.1 00:00 0.0
23/01 05:45 11.2 10.2 9.1 00:00 4.0
23/01 05:44 11.2 10.2 9.1 00:00 0.0
23/01 05:43 11.3 10.3 9.2 00:00 0.0
23/01 05:42 11.2 10.2 9.1 00:00 0.0
23/01 05:41 11.3 10.3 9.4 00:00 0.0
23/01 05:40 11.2 10.2 9.3 00:00 0.0
23/01 05:39 11.2 10.3 9.3 00:00 0.0
23/01 05:38 11.1 10.1 9.2 00:00 0.0
23/01 05:37 11.0 10 8.9 00:00 0.0
23/01 05:36 11.0 10 8.9 00:00 0.0
23/01 05:35 11.1 10.1 9 00:00 0.0
23/01 05:34 11.1 10.1 9 00:00 0.0
23/01 05:33 11.1 10.1 9 00:00 0.0
23/01 05:32 11.1 10.1 9 00:00 4.0
23/01 05:31 11.1 10.1 9 00:00 0.0
23/01 05:30 11.1 10.2 9 00:00 0.0
23/01 05:29 11.1 10.1 9 00:00 0.0
23/01 05:28 11.2 10.2 9.1 00:00 0.0
23/01 05:27 11.2 10.1 9.1 00:00 0.0
23/01 05:26 11.2 10.1 9.1 00:00 0.0
23/01 05:25 11.1 10 9 00:00 0.0
23/01 05:24 11.1 10 9 00:00 0.0
23/01 05:23 11.1 10 9 00:00 0.0
23/01 05:22 11.1 10 9 00:00 0.0
23/01 05:21 11.1 10 9 00:00 0.0
23/01 05:20 11.1 10 9 00:00 0.0
23/01 05:19 11.2 10.2 9.1 00:00 0.0
23/01 05:18 11.2 10.3 9.1 00:00 0.0
23/01 05:17 11.2 10.3 9.1 00:00 0.0
23/01 05:16 11.2 10.4 9.1 00:00 0.0
23/01 05:15 11.2 10.4 9.1 00:00 0.0
23/01 05:14 11.2 10.5 9.1 00:00 0.0
23/01 05:13 11.2 10.4 9.1 00:00 0.0
23/01 05:12 11.2 10.4 9.1 00:00 0.0
23/01 05:11 11.2 10.4 9.1 00:00 0.0
23/01 05:10 11.2 10.4 9.1 00:00 0.0
23/01 05:09 11.2 10.4 9.1 00:00 0.0
23/01 05:08 11.2 10.4 8.9 00:00 0.0
23/01 05:07 11.2 10.4 8.9 00:00 0.0
23/01 05:06 11.2 10.4 9.1 00:00 0.0
23/01 05:05 11.2 10.4 8.9 00:00 0.0
23/01 05:04 11.2 10.4 8.9 00:00 0.0
23/01 05:03 11.2 10.5 8.9 00:00 0.0
23/01 05:02 11.2 10.6 8.9 00:00 0.0
23/01 05:01 11.2 10.6 8.9 00:00 0.0
23/01 05:00 11.2 10.6 8.9 00:00 0.0
23/01 04:59 11.1 10.5 8.8 00:00 0.0
23/01 04:58 11.2 10.6 8.9 00:00 0.0
23/01 04:57 11.2 10.6 8.9 00:00 0.0
23/01 04:56 11.2 10.6 8.9 00:00 0.0
23/01 04:55 11.2 10.6 8.9 00:00 0.0
23/01 04:54 11.3 10.7 9 00:00 0.0
23/01 04:53 11.3 10.8 9 00:00 0.0
23/01 04:52 11.3 10.8 9 00:00 0.0
23/01 04:51 11.3 10.7 9 00:00 0.0
23/01 04:50 11.3 10.7 9 00:00 0.0
23/01 04:49 11.3 10.7 9 00:00 0.0
23/01 04:48 11.2 10.6 8.9 00:00 0.0
23/01 04:47 11.2 10.6 8.9 00:00 0.0
23/01 04:46 11.2 10.6 8.9 00:00 0.0
23/01 04:45 11.2 10.6 8.9 00:00 0.0
23/01 04:44 11.2 10.6 8.9 00:00 0.0
23/01 04:43 11.2 10.5 8.9 00:00 0.0
23/01 04:42 11.2 10.5 8.9 00:00 0.0
23/01 04:41 11.2 10.5 8.7 00:00 0.0
23/01 04:40 11.2 10.5 8.7 00:00 0.0
23/01 04:39 11.2 10.5 8.7 00:00 0.0
23/01 04:38 11.1 10.4 8.6 00:00 0.0
23/01 04:37 11.1 10.4 8.6 00:00 0.0
23/01 04:36 11.2 10.4 8.7 00:00 0.0
23/01 04:35 11.2 10.4 8.7 00:00 0.0
23/01 04:34 11.2 10.4 8.7 00:00 0.0
23/01 04:33 11.2 10.4 8.7 00:00 0.0
23/01 04:32 11.2 10.5 8.7 00:00 0.0
23/01 04:31 11.2 10.5 8.7 00:00 0.0
23/01 04:30 11.2 10.6 8.7 00:00 0.0
23/01 04:29 11.2 10.6 8.6 00:00 0.0
23/01 04:28 11.2 10.6 8.6 00:00 0.0
23/01 04:27 11.3 10.7 8.7 00:00 0.0
23/01 04:26 11.3 10.7 8.7 00:00 0.0
23/01 04:25 11.3 10.7 8.7 00:00 0.0
23/01 04:24 11.4 10.7 8.8 00:00 0.0
23/01 04:23 11.4 10.7 8.8 00:00 0.0
23/01 04:22 11.4 10.7 8.8 00:00 0.0
23/01 04:21 11.4 10.6 8.8 00:00 0.0
23/01 04:20 11.4 10.6 8.8 00:00 0.0
23/01 04:19 11.4 10.6 8.8 00:00 0.0
23/01 04:18 11.4 10.5 8.8 00:00 0.0
23/01 04:17 11.4 10.5 8.8 00:00 0.0
23/01 04:16 11.4 10.5 8.8 00:00 0.0
23/01 04:15 11.5 10.6 8.9 00:00 0.0
23/01 04:14 11.4 10.5 8.8 00:00 0.0
23/01 04:13 11.4 10.5 8.8 00:00 0.0
23/01 04:12 11.4 10.5 8.8 00:00 0.0
23/01 04:11 11.4 10.6 8.8 00:00 0.0
23/01 04:10 11.4 10.6 8.8 00:00 0.0
23/01 04:09 11.5 10.7 8.9 00:00 0.0
23/01 04:08 11.5 10.7 8.9 00:00 4.0
23/01 04:07 11.5 10.7 8.9 00:00 0.0
23/01 04:06 11.5 10.7 8.9 00:00 0.0
23/01 04:05 11.5 10.7 8.9 00:00 0.0
23/01 04:04 11.5 10.7 8.9 00:00 0.0
23/01 04:03 11.5 10.7 8.9 00:00 0.0
23/01 04:02 11.5 10.6 8.9 00:00 0.0
23/01 04:01 11.5 10.6 8.9 00:00 0.0
23/01 04:00 11.5 10.6 8.9 00:00 0.0
23/01 03:59 11.5 10.6 8.9 00:00 0.0
23/01 03:58 11.4 10.5 8.8 00:00 0.0
23/01 03:57 11.4 10.5 8.8 00:00 0.0
23/01 03:56 11.4 10.5 8.8 00:00 0.0
23/01 03:55 11.5 10.6 8.9 00:00 0.0
23/01 03:54 11.5 10.6 8.7 00:00 0.0
23/01 03:53 11.4 10.5 8.6 00:00 0.0
23/01 03:52 11.5 10.6 8.7 00:00 0.0
23/01 03:51 11.5 10.6 8.9 00:00 0.0
23/01 03:50 11.4 10.5 8.8 00:00 0.0
23/01 03:49 11.4 10.6 8.8 00:00 0.0
23/01 03:48 11.4 10.6 8.8 00:00 0.0
23/01 03:47 11.4 10.6 8.6 00:00 0.0
23/01 03:46 11.4 10.6 8.6 00:00 0.0
23/01 03:45 11.4 10.6 8.6 00:00 0.0



    Load Time 0.019209 seconds